Time;durP1;ratioP1;P1;durP2;ratioP2;P2;SDS_P1;SDS_P2;PMS_P1;PMS_P2;Temp;Humidity;BMP_temperature;BMP_pressure;BME280_temperature;BME280_humidity;BME280_pressure;Samples;Min_cycle;Max_cycle;Signal;HPM_P1;HPM_P2
2022/01/11 00:02:15;;;;;;;20.03;14.77;;;1.80;99.90;;;;;;5036033;28;20175;-70
2022/01/11 00:04:41;;;;;;;21.27;16.03;;;1.80;99.90;;;;;;5034573;28;20179;-70
2022/01/11 00:07:10;;;;;;;23.27;15.63;;;1.90;99.90;;;;;;5035197;28;20468;-70
2022/01/11 00:09:41;;;;;;;23.73;13.93;;;2.00;99.90;;;;;;5035550;28;20194;-70
2022/01/11 00:12:08;;;;;;;20.93;14.37;;;2.00;99.90;;;;;;5033980;28;21023;-70
2022/01/11 00:14:36;;;;;;;22.20;14.60;;;1.90;99.90;;;;;;5033312;28;20512;-70
2022/01/11 00:17:01;;;;;;;21.33;13.93;;;1.70;99.90;;;;;;5034088;28;20453;-69
2022/01/11 00:19:30;;;;;;;20.27;14.23;;;1.60;99.90;;;;;;5035557;28;20976;-70
2022/01/11 00:21:58;;;;;;;22.07;15.10;;;1.60;99.90;;;;;;5034966;28;20199;-73
2022/01/11 00:24:30;;;;;;;25.10;16.00;;;1.70;99.90;;;;;;5035367;28;20853;-70
2022/01/11 00:27:02;;;;;;;22.10;15.37;;;1.80;99.90;;;;;;5033958;28;20286;-70
2022/01/11 00:29:29;;;;;;;18.40;13.20;;;1.90;99.90;;;;;;5035686;28;20425;-70
2022/01/11 00:31:59;;;;;;;24.70;15.33;;;1.90;99.90;;;;;;5035038;28;20463;-71
2022/01/11 00:34:27;;;;;;;22.87;14.03;;;2.00;99.90;;;;;;5034068;28;20926;-70
2022/01/11 00:36:52;;;;;;;21.80;14.10;;;2.00;99.90;;;;;;5034456;28;20524;-69
2022/01/11 00:39:18;;;;;;;21.73;13.60;;;2.00;99.90;;;;;;5035460;28;20453;-70
2022/01/11 00:41:43;;;;;;;19.00;14.30;;;2.10;99.90;;;;;;5035010;28;20179;-70
2022/01/11 00:44:10;;;;;;;21.40;13.90;;;1.90;99.90;;;;;;5035826;28;20186;-70
2022/01/11 00:46:38;;;;;;;19.53;13.20;;;1.70;99.90;;;;;;5042288;28;20214;-70
2022/01/11 00:49:03;;;;;;;17.97;13.23;;;1.70;99.90;;;;;;5042779;28;20425;-70
2022/01/11 00:51:29;;;;;;;21.50;13.50;;;1.70;99.90;;;;;;5049668;28;20412;-68
2022/01/11 00:53:55;;;;;;;20.40;13.50;;;1.80;99.90;;;;;;5049295;28;20213;-69
2022/01/11 00:56:21;;;;;;;19.77;13.40;;;1.80;99.90;;;;;;5037910;28;20234;-69
2022/01/11 00:58:47;;;;;;;22.10;14.30;;;1.90;99.90;;;;;;5034057;28;20189;-69
2022/01/11 01:01:13;;;;;;;25.67;15.37;;;1.90;99.90;;;;;;5033942;28;20467;-70
2022/01/11 01:03:39;;;;;;;19.67;12.97;;;1.90;99.90;;;;;;5033671;28;20500;-69
2022/01/11 01:06:05;;;;;;;17.10;11.80;;;2.00;99.90;;;;;;5033592;28;21084;-69
2022/01/11 01:08:30;;;;;;;20.30;12.63;;;2.00;99.90;;;;;;5033452;28;20409;-69
2022/01/11 01:10:56;;;;;;;20.30;14.30;;;1.80;99.90;;;;;;5031956;28;20228;-69
2022/01/11 01:13:25;;;;;;;22.90;14.80;;;1.70;99.90;;;;;;5032935;28;20610;-69
2022/01/11 01:15:53;;;;;;;20.27;14.47;;;1.60;99.90;;;;;;5032783;28;20222;-69
2022/01/11 01:18:26;;;;;;;22.23;15.00;;;1.50;99.90;;;;;;5033087;28;20433;-69
2022/01/11 01:20:53;;;;;;;20.57;14.80;;;1.40;99.90;;;;;;5032806;28;20420;-69
2022/01/11 01:23:20;;;;;;;18.70;12.50;;;1.40;99.90;;;;;;5031710;28;20426;-69
2022/01/11 01:25:47;;;;;;;21.73;14.90;;;1.40;99.90;;;;;;5032475;28;20949;-68
2022/01/11 01:28:14;;;;;;;22.13;13.90;;;1.40;99.90;;;;;;5032679;28;20406;-71
2022/01/11 01:30:40;;;;;;;21.57;14.80;;;1.40;99.90;;;;;;5032882;28;20406;-70
2022/01/11 01:33:06;;;;;;;23.77;13.17;;;1.40;99.90;;;;;;5033217;28;20923;-68
2022/01/11 01:35:39;;;;;;;18.30;12.23;;;1.30;99.90;;;;;;5033401;28;20198;-69
2022/01/11 01:38:05;;;;;;;23.10;14.60;;;1.20;99.90;;;;;;5033044;28;20409;-68
2022/01/11 01:40:44;;;;;;;20.30;14.20;;;1.20;99.90;;;;;;5031677;28;20466;-69
2022/01/11 01:43:12;;;;;;;17.40;12.70;;;1.10;99.90;;;;;;5032782;28;20446;-68
2022/01/11 01:45:38;;;;;;;18.60;13.60;;;1.10;99.90;;;;;;5032252;28;20437;-69
2022/01/11 01:48:06;;;;;;;20.57;13.63;;;1.10;99.90;;;;;;5032584;28;20413;-68
2022/01/11 01:50:32;;;;;;;22.20;13.60;;;1.10;99.90;;;;;;5033200;28;20492;-68
2022/01/11 01:53:02;;;;;;;24.97;14.33;;;1.10;99.90;;;;;;5038892;28;20413;-69
2022/01/11 01:55:28;;;;;;;22.83;15.10;;;1.10;99.90;;;;;;5033974;28;20439;-68
2022/01/11 01:57:53;;;;;;;18.93;13.33;;;1.10;99.90;;;;;;5033872;28;20171;-68
2022/01/11 02:00:20;;;;;;;20.37;13.27;;;1.20;99.90;;;;;;5032971;28;20175;-68
2022/01/11 02:02:46;;;;;;;16.07;11.23;;;1.30;99.90;;;;;;5033059;28;20246;-68
2022/01/11 02:05:12;;;;;;;16.67;11.83;;;1.30;99.90;;;;;;5032929;28;20465;-69
2022/01/11 02:07:38;;;;;;;18.20;12.17;;;1.30;99.90;;;;;;5032563;28;20481;-69
2022/01/11 02:10:06;;;;;;;19.33;11.37;;;1.20;99.90;;;;;;5032942;28;20416;-69
2022/01/11 02:12:32;;;;;;;19.30;11.90;;;1.20;99.90;;;;;;5031512;28;20174;-69
2022/01/11 02:14:58;;;;;;;17.60;11.70;;;1.20;99.90;;;;;;5031380;28;20467;-69
2022/01/11 02:17:27;;;;;;;15.60;11.53;;;1.20;99.90;;;;;;5046835;22;20600;-70
2022/01/11 02:19:55;;;;;;;17.27;11.33;;;1.20;99.90;;;;;;5019942;28;20175;-71
2022/01/11 02:22:20;;;;;;;14.87;11.03;;;1.30;99.90;;;;;;5013232;28;20456;-71
2022/01/11 02:24:46;;;;;;;18.30;12.63;;;1.30;99.90;;;;;;5013284;28;20482;-70
2022/01/11 02:27:12;;;;;;;18.87;12.07;;;1.30;99.90;;;;;;5012628;28;20282;-71
2022/01/11 02:29:39;;;;;;;14.00;11.07;;;1.30;99.90;;;;;;5013306;28;20171;-71
2022/01/11 02:32:05;;;;;;;20.30;12.47;;;1.20;99.90;;;;;;5025803;28;20421;-69
2022/01/11 02:34:30;;;;;;;17.73;11.13;;;1.20;99.90;;;;;;5032976;28;20422;-69
2022/01/11 02:36:56;;;;;;;21.00;13.17;;;1.00;99.90;;;;;;5032072;28;20440;-70
2022/01/11 02:39:21;;;;;;;17.17;11.90;;;0.90;99.90;;;;;;5032297;28;20254;-70
2022/01/11 02:41:53;;;;;;;18.20;11.30;;;1.00;99.90;;;;;;5033077;28;20175;-70
2022/01/11 02:44:19;;;;;;;17.80;11.63;;;1.00;99.90;;;;;;5032330;28;20213;-70
2022/01/11 02:46:45;;;;;;;16.67;11.87;;;1.10;99.90;;;;;;5032210;28;20453;-70
2022/01/11 02:49:11;;;;;;;18.53;12.10;;;1.20;99.90;;;;;;5032480;28;20420;-70
2022/01/11 02:51:37;;;;;;;17.27;11.80;;;1.10;99.90;;;;;;5032382;28;20250;-69
2022/01/11 02:54:05;;;;;;;19.53;13.37;;;1.00;99.90;;;;;;5032142;28;20324;-71
2022/01/11 02:56:31;;;;;;;17.07;11.70;;;1.00;99.90;;;;;;5032195;28;20543;-70
2022/01/11 02:58:57;;;;;;;18.63;12.17;;;1.00;99.90;;;;;;5032507;28;20417;-70
2022/01/11 03:01:23;;;;;;;16.57;11.40;;;1.00;99.90;;;;;;5031813;28;20436;-70
2022/01/11 03:03:50;;;;;;;16.10;12.50;;;1.10;99.90;;;;;;5032150;28;20444;-70
2022/01/11 03:06:15;;;;;;;18.80;11.67;;;1.10;99.90;;;;;;5034555;28;20456;-70
2022/01/11 03:08:44;;;;;;;16.30;11.10;;;1.10;99.90;;;;;;5036224;28;20548;-70
2022/01/11 03:11:11;;;;;;;14.47;10.03;;;1.10;99.90;;;;;;5036421;28;20174;-69
2022/01/11 03:13:39;;;;;;;17.07;10.60;;;1.10;99.90;;;;;;5036283;28;20406;-70
2022/01/11 03:16:05;;;;;;;15.47;10.67;;;1.20;99.90;;;;;;5035861;28;20420;-70
2022/01/11 03:18:31;;;;;;;15.40;10.37;;;1.20;99.90;;;;;;5035848;28;20398;-70
2022/01/11 03:20:57;;;;;;;19.70;12.37;;;1.20;99.90;;;;;;5035222;28;20197;-70
2022/01/11 03:23:23;;;;;;;17.80;10.37;;;1.20;99.90;;;;;;5035715;28;20948;-70
2022/01/11 03:25:53;;;;;;;17.23;11.37;;;1.20;99.90;;;;;;5034720;28;20544;-70
2022/01/11 03:28:20;;;;;;;16.57;11.13;;;1.30;99.90;;;;;;5035548;28;20414;-71
2022/01/11 03:30:47;;;;;;;18.73;10.70;;;1.20;99.90;;;;;;5035390;28;20413;-69
2022/01/11 03:33:12;;;;;;;17.90;10.50;;;1.20;99.90;;;;;;5035586;28;20406;-70
2022/01/11 03:35:39;;;;;;;16.63;10.70;;;1.10;99.90;;;;;;5035134;28;20413;-70
2022/01/11 03:38:06;;;;;;;16.23;10.70;;;1.10;99.90;;;;;;5035167;28;20195;-70
2022/01/11 03:40:32;;;;;;;15.17;10.23;;;1.00;99.90;;;;;;5035413;28;20834;-70
2022/01/11 03:42:58;;;;;;;16.30;11.17;;;1.00;99.90;;;;;;5035656;28;20444;-71
2022/01/11 03:45:25;;;;;;;18.83;11.77;;;1.00;99.90;;;;;;5034627;28;20170;-71
2022/01/11 03:47:53;;;;;;;15.48;10.15;;;1.00;99.90;;;;;;5034267;28;20210;-70
2022/01/11 03:50:19;;;;;;;14.80;9.60;;;0.90;99.90;;;;;;5034790;28;20735;-70
2022/01/11 03:52:45;;;;;;;14.93;10.50;;;0.90;99.90;;;;;;5035157;28;20428;-69
2022/01/11 03:55:15;;;;;;;15.47;10.23;;;0.80;99.90;;;;;;5034637;28;20453;-70
2022/01/11 03:57:41;;;;;;;14.98;9.55;;;0.80;99.90;;;;;;5034561;28;20191;-70
2022/01/11 04:00:13;;;;;;;15.73;10.53;;;0.80;99.90;;;;;;5035172;28;20190;-70
2022/01/11 04:02:39;;;;;;;16.42;10.73;;;0.70;99.90;;;;;;5034683;28;20819;-70
2022/01/11 04:05:06;;;;;;;21.03;11.80;;;0.70;99.90;;;;;;5033637;28;20257;-70
2022/01/11 04:07:32;;;;;;;14.93;10.20;;;0.70;99.90;;;;;;5034515;28;20273;-70
2022/01/11 04:09:57;;;;;;;15.53;10.30;;;0.80;99.90;;;;;;5034926;28;20430;-69
2022/01/11 04:12:24;;;;;;;14.73;10.40;;;0.90;99.90;;;;;;5034661;28;20254;-70
2022/01/11 04:14:50;;;;;;;18.33;10.02;;;0.80;99.90;;;;;;5034911;28;20189;-69
2022/01/11 04:17:16;;;;;;;14.63;9.60;;;0.70;99.90;;;;;;5034128;28;20217;-70
2022/01/11 04:19:42;;;;;;;11.70;9.27;;;0.70;99.90;;;;;;5034611;28;20593;-70
2022/01/11 04:22:07;;;;;;;14.47;9.23;;;0.70;99.90;;;;;;5034480;28;20459;-70
2022/01/11 04:24:33;;;;;;;16.17;10.23;;;0.70;99.90;;;;;;5035096;28;20183;-70
2022/01/11 04:26:58;;;;;;;15.83;9.73;;;0.60;99.90;;;;;;5034088;28;20293;-70
2022/01/11 04:29:24;;;;;;;14.03;9.30;;;0.70;99.90;;;;;;5034550;28;20193;-71
2022/01/11 04:31:50;;;;;;;15.10;9.60;;;0.70;99.90;;;;;;5034445;28;20254;-71
2022/01/11 04:34:15;;;;;;;12.00;8.27;;;0.70;99.90;;;;;;5034615;28;20175;-69
2022/01/11 04:36:41;;;;;;;18.77;10.60;;;0.70;99.90;;;;;;5033898;28;20434;-70
2022/01/11 04:39:11;;;;;;;15.17;9.87;;;0.70;99.90;;;;;;5033863;28;20494;-71
2022/01/11 04:41:37;;;;;;;19.63;10.93;;;0.60;99.90;;;;;;5033578;28;20186;-71
2022/01/11 04:44:03;;;;;;;13.30;9.07;;;0.70;99.90;;;;;;5034086;28;20273;-72
2022/01/11 04:46:29;;;;;;;12.75;8.95;;;0.80;99.90;;;;;;5031529;28;20214;-71
2022/01/11 04:48:55;;;;;;;12.50;8.90;;;0.80;99.90;;;;;;5029949;28;20179;-70
2022/01/11 04:51:22;;;;;;;13.80;9.25;;;0.90;99.90;;;;;;5033562;28;20918;-70
2022/01/11 04:53:48;;;;;;;14.57;10.00;;;0.80;99.90;;;;;;5031609;28;20191;-69
2022/01/11 04:56:14;;;;;;;13.07;9.60;;;0.80;99.90;;;;;;5001697;28;20203;-70
2022/01/11 04:58:40;;;;;;;16.10;9.63;;;0.70;99.90;;;;;;5029390;28;20186;-69
2022/01/11 05:01:05;;;;;;;15.37;9.93;;;0.60;99.90;;;;;;5030058;28;20783;-70
2022/01/11 05:03:31;;;;;;;15.33;9.30;;;0.60;99.90;;;;;;5032746;28;20186;-70
2022/01/11 05:05:57;;;;;;;13.97;9.53;;;0.50;99.90;;;;;;5032696;28;20222;-73
2022/01/11 05:08:23;;;;;;;12.80;9.60;;;0.60;99.90;;;;;;5030903;28;20872;-72
2022/01/11 05:10:49;;;;;;;13.03;9.63;;;0.70;99.90;;;;;;5029830;28;20464;-72
2022/01/11 05:13:16;;;;;;;14.40;9.87;;;0.70;99.90;;;;;;5032032;28;20256;-71
2022/01/11 05:15:43;;;;;;;12.93;9.60;;;0.70;99.90;;;;;;5031936;28;20433;-71
2022/01/11 05:18:09;;;;;;;15.27;9.98;;;0.70;99.90;;;;;;5030914;28;20469;-72
2022/01/11 05:20:36;;;;;;;11.07;8.57;;;0.70;99.90;;;;;;5028720;28;20580;-71
2022/01/11 05:23:02;;;;;;;18.15;10.02;;;0.70;99.90;;;;;;5031497;28;20753;-71
2022/01/11 05:25:28;;;;;;;12.15;8.43;;;0.70;99.90;;;;;;5028340;28;20216;-69
2022/01/11 05:27:54;;;;;;;13.97;8.97;;;0.70;99.90;;;;;;5023243;28;20222;-70
2022/01/11 05:30:20;;;;;;;14.95;9.13;;;0.70;99.90;;;;;;5029972;28;20889;-71
2022/01/11 05:32:45;;;;;;;13.97;8.27;;;0.80;99.90;;;;;;5029971;28;20215;-72
2022/01/11 05:35:13;;;;;;;12.97;9.30;;;0.90;99.90;;;;;;5030935;28;20437;-72
2022/01/11 05:37:39;;;;;;;13.07;8.73;;;0.80;99.90;;;;;;5031765;28;20583;-71
2022/01/11 05:40:07;;;;;;;13.27;10.13;;;0.80;99.90;;;;;;5032424;28;20450;-70
2022/01/11 05:42:33;;;;;;;15.23;9.80;;;0.90;99.90;;;;;;5032125;28;20461;-70
2022/01/11 05:44:59;;;;;;;20.58;14.70;;;0.90;99.90;;;;;;5032440;28;20449;-71
2022/01/11 05:47:24;;;;;;;21.50;15.73;;;1.00;99.90;;;;;;5032633;28;20604;-70
2022/01/11 05:49:51;;;;;;;18.67;12.82;;;0.90;99.90;;;;;;5032910;28;20194;-71
2022/01/11 05:52:17;;;;;;;21.80;15.43;;;0.80;99.90;;;;;;5032367;28;20251;-71
2022/01/11 05:54:43;;;;;;;18.37;13.37;;;0.70;99.90;;;;;;5031920;28;20178;-71
2022/01/11 05:57:09;;;;;;;22.90;14.90;;;0.70;99.90;;;;;;5031613;28;20483;-70
2022/01/11 05:59:34;;;;;;;16.13;12.50;;;0.60;99.90;;;;;;5032267;28;20174;-71
2022/01/11 06:02:00;;;;;;;19.27;12.07;;;0.60;99.90;;;;;;5033599;28;20185;-72
2022/01/11 06:04:25;;;;;;;19.27;12.00;;;0.50;99.90;;;;;;5034493;28;20174;-72
2022/01/11 06:06:52;;;;;;;15.50;10.77;;;0.50;99.90;;;;;;5032767;28;20206;-71
2022/01/11 06:09:18;;;;;;;16.00;12.10;;;0.60;99.90;;;;;;5031842;28;20233;-71
2022/01/11 06:11:44;;;;;;;18.70;10.90;;;0.70;99.90;;;;;;5031871;28;20941;-71
2022/01/11 06:14:09;;;;;;;12.10;9.80;;;0.70;99.90;;;;;;5031664;28;20413;-71
2022/01/11 06:16:36;;;;;;;14.33;9.40;;;0.70;99.90;;;;;;5031263;28;20211;-71
2022/01/11 06:19:03;;;;;;;16.60;11.17;;;0.60;99.90;;;;;;5031524;28;20171;-72
2022/01/11 06:21:28;;;;;;;14.27;9.38;;;0.70;99.90;;;;;;5031431;28;20805;-72
2022/01/11 06:23:54;;;;;;;14.67;9.90;;;0.80;99.90;;;;;;5031292;28;20566;-72
2022/01/11 06:26:19;;;;;;;13.80;9.77;;;0.80;99.90;;;;;;5030883;28;20198;-71
2022/01/11 06:28:45;;;;;;;16.33;9.73;;;0.80;99.90;;;;;;5013822;28;20222;-71
2022/01/11 06:31:10;;;;;;;14.00;10.50;;;0.80;99.90;;;;;;5031405;28;20175;-72
2022/01/11 06:33:36;;;;;;;19.80;9.60;;;0.80;99.90;;;;;;5032504;28;20174;-71
2022/01/11 06:36:02;;;;;;;13.43;10.67;;;0.80;99.90;;;;;;5031017;28;20226;-71
2022/01/11 06:38:28;;;;;;;12.80;9.63;;;0.70;99.90;;;;;;5031072;28;20187;-70
2022/01/11 06:40:53;;;;;;;14.30;9.57;;;0.70;99.90;;;;;;5035191;28;20776;-71
2022/01/11 06:43:19;;;;;;;19.50;10.80;;;0.80;99.90;;;;;;5035466;28;20182;-72
2022/01/11 06:45:45;;;;;;;14.13;10.00;;;0.80;99.90;;;;;;5034960;28;20178;-72
2022/01/11 06:48:10;;;;;;;13.50;9.90;;;0.90;99.90;;;;;;5035164;28;20183;-71
2022/01/11 06:50:36;;;;;;;13.67;9.70;;;1.00;99.90;;;;;;5035594;28;20225;-72
2022/01/11 06:53:02;;;;;;;14.20;10.20;;;1.00;99.90;;;;;;5034927;28;20179;-71
2022/01/11 06:55:28;;;;;;;47.63;37.90;;;1.10;99.90;;;;;;5034885;28;20175;-71
2022/01/11 06:57:54;;;;;;;20.30;18.10;;;1.10;99.90;;;;;;5035000;28;20435;-72
2022/01/11 07:00:20;;;;;;;15.40;11.43;;;1.10;99.90;;;;;;5034987;28;20258;-71
2022/01/11 07:02:49;;;;;;;16.30;11.47;;;1.10;99.90;;;;;;5034876;28;20415;-71
2022/01/11 07:05:16;;;;;;;11.83;9.40;;;1.10;99.90;;;;;;5035131;28;20797;-71
2022/01/11 07:07:42;;;;;;;13.67;10.23;;;1.10;99.90;;;;;;5034499;28;21008;-71
2022/01/11 07:10:08;;;;;;;15.13;10.67;;;1.10;99.90;;;;;;5034649;28;20440;-72
2022/01/11 07:12:34;;;;;;;16.43;11.73;;;1.00;99.90;;;;;;5017709;28;20468;-71
2022/01/11 07:14:59;;;;;;;14.47;10.83;;;0.80;99.90;;;;;;5035531;28;20178;-71
2022/01/11 07:17:25;;;;;;;16.77;10.93;;;0.70;99.90;;;;;;5034369;28;20661;-71
2022/01/11 07:19:51;;;;;;;17.40;10.50;;;0.60;99.90;;;;;;5035069;28;20211;-71
2022/01/11 07:22:17;;;;;;;13.77;10.02;;;0.60;99.90;;;;;;5035016;28;20241;-71
2022/01/11 07:24:42;;;;;;;16.20;10.50;;;0.60;99.90;;;;;;5035006;28;20643;-72
2022/01/11 07:27:08;;;;;;;13.33;9.53;;;0.50;99.90;;;;;;5034718;28;20710;-71
2022/01/11 07:29:34;;;;;;;16.08;10.52;;;0.50;99.90;;;;;;5034825;28;20221;-71
2022/01/11 07:32:00;;;;;;;14.47;9.87;;;0.60;99.90;;;;;;5017573;28;20640;-70
2022/01/11 07:34:25;;;;;;;15.47;9.73;;;0.70;99.90;;;;;;5017276;28;20171;-71
2022/01/11 07:36:51;;;;;;;18.10;10.07;;;0.80;99.90;;;;;;5034965;28;20229;-71
2022/01/11 07:39:17;;;;;;;14.20;9.53;;;0.80;99.90;;;;;;5017154;28;20179;-71
2022/01/11 07:41:43;;;;;;;18.40;9.33;;;0.90;99.90;;;;;;5034513;28;20601;-70
2022/01/11 07:44:09;;;;;;;15.15;9.25;;;1.00;99.90;;;;;;5016866;28;20183;-71
2022/01/11 07:46:36;;;;;;;15.87;10.13;;;1.00;99.90;;;;;;5034740;28;20745;-71
2022/01/11 07:49:03;;;;;;;15.80;9.20;;;1.10;99.90;;;;;;5035010;28;20926;-71
2022/01/11 07:51:29;;;;;;;15.63;9.97;;;1.10;99.90;;;;;;5033715;28;20408;-71
2022/01/11 07:53:54;;;;;;;16.53;8.93;;;1.20;99.90;;;;;;5034087;28;20918;-70
2022/01/11 07:56:20;;;;;;;12.33;10.13;;;1.20;99.90;;;;;;5033420;28;20433;-71
2022/01/11 07:58:46;;;;;;;12.43;8.90;;;1.30;99.90;;;;;;5017054;28;20175;-70
2022/01/11 08:01:12;;;;;;;14.50;9.20;;;1.30;99.90;;;;;;5034061;28;20648;-70
2022/01/11 08:03:38;;;;;;;12.70;9.63;;;1.30;99.90;;;;;;5016179;28;20171;-71
2022/01/11 08:06:04;;;;;;;13.43;10.03;;;1.30;99.90;;;;;;5016059;28;20256;-70
2022/01/11 08:08:30;;;;;;;14.47;9.90;;;1.20;99.90;;;;;;5034552;28;20217;-71
2022/01/11 08:10:56;;;;;;;13.70;9.83;;;1.10;99.90;;;;;;5033910;28;20441;-71
2022/01/11 08:13:22;;;;;;;21.40;10.70;;;1.20;99.90;;;;;;5034378;28;20640;-70
2022/01/11 08:15:49;;;;;;;15.47;10.00;;;1.10;99.90;;;;;;5033712;28;20543;-70
2022/01/11 08:18:14;;;;;;;12.23;8.83;;;1.10;99.90;;;;;;5056138;22;20505;-68
2022/01/11 08:20:40;;;;;;;14.57;9.40;;;1.20;99.90;;;;;;5035380;28;20425;-68
2022/01/11 08:23:05;;;;;;;16.73;10.27;;;1.20;99.90;;;;;;5042472;28;20186;-68
2022/01/11 08:25:32;;;;;;;14.70;9.27;;;1.20;99.90;;;;;;5040281;28;20182;-68
2022/01/11 08:27:59;;;;;;;18.07;11.27;;;1.20;99.90;;;;;;5034772;28;20214;-69
2022/01/11 08:30:25;;;;;;;14.50;8.93;;;1.30;99.90;;;;;;5033864;28;20488;-69
2022/01/11 08:32:51;;;;;;;13.00;9.70;;;1.40;99.90;;;;;;5034657;28;20463;-68
2022/01/11 08:35:16;;;;;;;15.67;10.10;;;1.40;99.90;;;;;;5033630;28;20712;-70
2022/01/11 08:37:42;;;;;;;14.90;9.60;;;1.50;99.90;;;;;;5033834;28;20512;-68
2022/01/11 08:40:08;;;;;;;11.80;9.53;;;1.50;99.90;;;;;;5033435;28;20413;-71
2022/01/11 08:42:34;;;;;;;12.43;9.20;;;1.60;99.90;;;;;;5033854;28;20253;-67
2022/01/11 08:45:00;;;;;;;13.50;9.53;;;1.60;99.90;;;;;;5033123;28;20418;-68
2022/01/11 08:47:30;;;;;;;16.93;10.20;;;1.60;99.90;;;;;;5032948;28;20206;-68
2022/01/11 08:49:59;;;;;;;15.07;9.20;;;1.70;99.90;;;;;;5033567;28;20400;-69
2022/01/11 08:52:25;;;;;;;15.20;9.20;;;1.70;99.90;;;;;;5032921;28;20771;-70
2022/01/11 08:54:50;;;;;;;13.73;10.20;;;1.80;99.90;;;;;;5033374;28;20486;-70
2022/01/11 08:57:19;;;;;;;14.77;10.67;;;1.80;99.90;;;;;;5032768;28;20433;-69
2022/01/11 08:59:45;;;;;;;14.40;9.90;;;1.80;99.90;;;;;;5032964;28;20206;-71
2022/01/11 09:02:11;;;;;;;16.67;11.43;;;1.80;99.90;;;;;;5032388;28;20529;-71
2022/01/11 09:04:37;;;;;;;14.83;9.87;;;1.80;99.90;;;;;;5032318;28;20914;-68
2022/01/11 09:07:03;;;;;;;13.63;10.27;;;1.80;99.90;;;;;;5032616;28;20487;-69
2022/01/11 09:09:31;;;;;;;15.50;9.83;;;1.90;99.90;;;;;;5031817;28;20177;-69
2022/01/11 09:11:57;;;;;;;12.27;9.83;;;1.90;99.90;;;;;;5032799;28;20406;-69
2022/01/11 09:14:23;;;;;;;16.43;11.10;;;1.90;99.90;;;;;;5031359;28;20471;-68
2022/01/11 09:16:50;;;;;;;14.83;10.10;;;2.00;99.90;;;;;;5032493;28;20415;-69
2022/01/11 09:19:18;;;;;;;12.67;9.30;;;2.00;99.90;;;;;;5031465;28;20448;-69
2022/01/11 09:21:45;;;;;;;13.20;10.07;;;2.10;99.90;;;;;;5035543;28;20414;-69
2022/01/11 09:24:12;;;;;;;15.93;10.73;;;2.10;99.90;;;;;;5038254;28;20413;-69
2022/01/11 09:26:39;;;;;;;12.60;8.80;;;2.20;99.90;;;;;;5038781;28;20529;-69
2022/01/11 09:29:04;;;;;;;13.33;9.60;;;2.20;99.90;;;;;;5040053;28;20437;-68
2022/01/11 09:31:30;;;;;;;13.77;9.73;;;2.20;99.90;;;;;;5034729;28;20458;-68
2022/01/11 09:33:55;;;;;;;14.10;9.10;;;2.30;99.90;;;;;;5032402;28;20405;-69
2022/01/11 09:36:22;;;;;;;12.93;10.20;;;2.30;99.90;;;;;;5034051;28;20175;-68
2022/01/11 09:38:48;;;;;;;14.60;10.50;;;2.30;99.90;;;;;;5032206;28;20234;-69
2022/01/11 09:41:13;;;;;;;15.67;10.60;;;2.40;99.90;;;;;;5032263;28;20506;-69
2022/01/11 09:43:39;;;;;;;16.80;10.37;;;2.40;99.90;;;;;;5032138;28;20258;-68
2022/01/11 09:46:05;;;;;;;16.47;10.80;;;2.50;99.90;;;;;;5031659;28;20206;-68
2022/01/11 09:48:32;;;;;;;14.60;10.83;;;2.50;99.90;;;;;;5032008;28;20190;-68
2022/01/11 09:50:59;;;;;;;16.47;10.43;;;2.60;99.90;;;;;;5031800;28;20179;-69
2022/01/11 09:53:25;;;;;;;14.23;10.73;;;2.70;99.90;;;;;;5031715;28;20481;-69
2022/01/11 09:55:51;;;;;;;14.63;11.97;;;2.70;99.90;;;;;;5031788;28;20955;-68
2022/01/11 09:58:17;;;;;;;20.17;12.27;;;2.80;99.90;;;;;;5031573;28;20984;-68
2022/01/11 10:00:43;;;;;;;25.17;13.13;;;2.80;99.90;;;;;;5031966;28;20767;-69
2022/01/11 10:03:09;;;;;;;14.57;10.83;;;2.90;99.90;;;;;;5031774;28;20413;-68
2022/01/11 10:05:37;;;;;;;16.93;11.40;;;2.90;99.90;;;;;;5031509;28;20464;-67
2022/01/11 10:08:27;;;;;;;16.43;11.33;;;3.00;99.90;;;;;;5030394;28;20489;-68
2022/01/11 10:10:56;;;;;;;16.70;11.10;;;3.10;99.90;;;;;;5031805;28;20531;-69
2022/01/11 10:13:37;;;;;;;11.77;8.63;;;3.20;99.90;;;;;;5031518;28;20418;-69
2022/01/11 10:16:26;;;;;;;12.10;9.10;;;3.20;99.90;;;;;;5035858;28;20442;-69
2022/01/11 10:18:54;;;;;;;13.90;10.27;;;3.30;99.90;;;;;;5035786;28;20460;-69
2022/01/11 10:21:41;;;;;;;15.13;10.27;;;3.50;99.90;;;;;;5035907;28;20423;-69
2022/01/11 10:24:35;;;;;;;15.53;11.27;;;3.60;99.90;;;;;;5034701;28;20426;-68
2022/01/11 10:27:07;;;;;;;18.80;10.77;;;3.70;99.90;;;;;;5035974;28;20502;-69
2022/01/11 10:29:37;;;;;;;16.37;12.00;;;3.80;99.90;;;;;;5036490;28;20455;-69
2022/01/11 10:32:12;;;;;;;19.53;11.70;;;3.80;99.90;;;;;;5039087;28;20403;-70
2022/01/11 10:34:39;;;;;;;15.53;11.63;;;3.90;99.90;;;;;;5038187;28;20808;-69
2022/01/11 10:37:05;;;;;;;15.70;11.10;;;4.00;99.90;;;;;;5036778;28;20808;-69
2022/01/11 10:39:44;;;;;;;16.70;11.60;;;4.10;99.90;;;;;;5039671;28;20419;-70
2022/01/11 10:42:26;;;;;;;21.53;13.83;;;4.20;99.90;;;;;;5038043;28;20444;-70
2022/01/11 10:45:01;;;;;;;19.73;14.57;;;4.20;99.90;;;;;;5037752;28;20504;-69
2022/01/11 10:47:34;;;;;;;17.17;10.83;;;4.30;99.90;;;;;;5037387;28;20463;-69
2022/01/11 10:50:04;;;;;;;12.73;10.00;;;4.40;99.90;;;;;;5036509;28;20390;-69
2022/01/11 10:52:32;;;;;;;13.97;10.40;;;4.50;99.90;;;;;;5036184;28;20402;-70
2022/01/11 10:54:58;;;;;;;15.47;10.53;;;4.60;99.90;;;;;;5035463;28;20847;-69
2022/01/11 10:57:27;;;;;;;12.03;9.33;;;4.60;99.90;;;;;;5035372;28;20441;-69
2022/01/11 11:00:12;;;;;;;14.50;8.57;;;4.80;99.90;;;;;;5036822;28;20771;-69
2022/01/11 11:02:38;;;;;;;20.87;10.10;;;4.90;99.90;;;;;;5038063;28;20408;-69
2022/01/11 11:05:20;;;;;;;13.30;8.27;;;5.00;99.90;;;;;;5037769;28;20413;-70
2022/01/11 11:08:05;;;;;;;12.90;8.00;;;5.10;99.90;;;;;;5036575;28;20467;-70
2022/01/11 11:10:36;;;;;;;11.63;7.43;;;5.20;99.90;;;;;;5038236;28;20647;-70
2022/01/11 11:13:03;;;;;;;11.30;7.33;;;5.40;99.90;;;;;;5038071;28;20390;-69
2022/01/11 11:15:35;;;;;;;12.93;8.00;;;5.40;99.90;;;;;;5036504;28;20761;-70
2022/01/11 11:18:03;;;;;;;11.50;7.40;;;5.50;99.90;;;;;;5035084;28;20449;-68
2022/01/11 11:20:29;;;;;;;11.40;6.87;;;5.60;99.90;;;;;;5033582;28;20464;-70
2022/01/11 11:22:54;;;;;;;16.10;8.03;;;5.60;99.90;;;;;;5034997;28;20464;-68
2022/01/11 11:25:20;;;;;;;13.30;7.40;;;5.70;99.90;;;;;;5033903;28;20441;-67
2022/01/11 11:27:46;;;;;;;7.80;7.00;;;5.80;99.90;;;;;;5034126;28;20580;-68
2022/01/11 11:30:12;;;;;;;13.47;7.27;;;5.90;99.90;;;;;;5034703;28;20640;-68
2022/01/11 11:32:38;;;;;;;11.43;6.80;;;5.90;99.90;;;;;;5033885;28;20182;-69
2022/01/11 11:35:04;;;;;;;8.57;6.83;;;6.00;99.90;;;;;;5035152;28;20468;-69
2022/01/11 11:37:38;;;;;;;10.60;6.83;;;6.10;99.90;;;;;;5034188;28;20930;-69
2022/01/11 11:40:09;;;;;;;8.93;7.40;;;6.10;99.90;;;;;;5034647;28;20452;-69
2022/01/11 11:42:36;;;;;;;7.60;6.57;;;6.20;99.90;;;;;;5034313;28;20923;-69
2022/01/11 11:45:18;;;;;;;10.43;7.47;;;6.20;99.90;;;;;;5034188;28;20413;-68
2022/01/11 11:47:45;;;;;;;8.63;6.97;;;6.20;99.90;;;;;;5033965;28;20465;-68
2022/01/11 11:50:15;;;;;;;12.60;7.60;;;6.10;99.90;;;;;;5033308;28;20425;-69
2022/01/11 11:52:44;;;;;;;11.40;7.90;;;6.20;99.90;;;;;;5034422;28;20921;-68
2022/01/11 11:55:31;;;;;;;10.43;6.80;;;6.30;99.90;;;;;;5034416;28;20418;-68
2022/01/11 11:58:03;;;;;;;11.17;7.10;;;6.40;99.90;;;;;;5034207;28;20441;-68
2022/01/11 12:00:43;;;;;;;14.33;7.00;;;6.40;99.90;;;;;;5034262;28;20448;-70
2022/01/11 12:03:25;;;;;;;9.77;6.87;;;6.40;99.90;;;;;;5034443;28;20397;-68
2022/01/11 12:05:51;;;;;;;12.13;7.67;;;6.50;99.90;;;;;;5034094;28;20477;-69
2022/01/11 12:08:42;;;;;;;11.50;7.77;;;6.50;99.90;;;;;;5032604;28;20544;-68
2022/01/11 12:11:11;;;;;;;13.40;8.07;;;6.50;99.90;;;;;;5034243;28;20441;-68
2022/01/11 12:13:44;;;;;;;13.57;7.27;;;6.50;99.90;;;;;;5035056;28;20405;-69
2022/01/11 12:16:25;;;;;;;10.23;7.53;;;6.60;99.90;;;;;;5033856;28;20926;-68
2022/01/11 12:19:02;;;;;;;10.10;7.37;;;6.60;99.90;;;;;;5033744;28;20469;-69
2022/01/11 12:21:38;;;;;;;9.70;6.83;;;6.60;99.90;;;;;;5033511;28;20492;-68
2022/01/11 12:24:03;;;;;;;12.17;7.20;;;6.60;99.90;;;;;;5032455;28;20472;-69
2022/01/11 12:26:34;;;;;;;9.23;7.20;;;6.60;99.90;;;;;;5033485;28;20643;-69
2022/01/11 12:29:03;;;;;;;10.23;6.10;;;6.60;99.90;;;;;;5033166;28;20195;-69
2022/01/11 12:31:29;;;;;;;10.03;6.33;;;6.50;99.90;;;;;;5034027;28;20402;-67
2022/01/11 12:33:56;;;;;;;7.53;6.13;;;6.50;99.90;;;;;;5033623;28;20414;-68
2022/01/11 12:36:21;;;;;;;9.17;6.70;;;6.60;99.90;;;;;;5033312;28;20409;-68
2022/01/11 12:39:03;;;;;;;10.47;6.90;;;6.50;99.90;;;;;;5033297;28;20426;-69
2022/01/11 12:41:34;;;;;;;10.67;6.83;;;6.50;99.90;;;;;;5034991;28;20171;-69
2022/01/11 12:44:24;;;;;;;9.20;6.80;;;6.50;99.90;;;;;;5034031;28;20768;-69